createdAt,value
2017-05-05T00:01:10.708Z,1012.62
2017-05-05T00:02:10.542Z,1012.63
2017-05-05T00:03:10.480Z,1012.62
2017-05-05T00:04:10.419Z,1012.63
2017-05-05T00:05:10.355Z,1012.64
2017-05-05T00:06:10.293Z,1012.63
2017-05-05T00:07:10.231Z,1012.62
2017-05-05T00:08:10.167Z,1012.6
2017-05-05T00:09:10.106Z,1012.62
2017-05-05T00:10:10.193Z,1012.63
2017-05-05T00:11:09.989Z,1012.59
2017-05-05T00:12:09.919Z,1012.6
2017-05-05T00:13:09.857Z,1012.62
2017-05-05T00:14:09.794Z,1012.62
2017-05-05T00:15:09.731Z,1012.66
2017-05-05T00:16:09.668Z,1012.6
2017-05-05T00:17:09.607Z,1012.65
2017-05-05T00:18:09.544Z,1012.58
2017-05-05T00:19:09.481Z,1012.58
2017-05-05T00:20:09.429Z,1012.58
2017-05-05T00:21:09.358Z,1012.57
2017-05-05T00:22:09.294Z,1012.56
2017-05-05T00:23:09.232Z,1012.57
2017-05-05T00:24:09.172Z,1012.57
2017-05-05T00:25:09.109Z,1012.55
2017-05-05T00:26:09.045Z,1012.54
2017-05-05T00:27:08.983Z,1012.57
2017-05-05T00:28:08.921Z,1012.6
2017-05-05T00:29:08.859Z,1012.57
2017-05-05T00:30:08.796Z,1012.57
2017-05-05T00:31:08.734Z,1012.56
2017-05-05T00:32:08.672Z,1012.6
2017-05-05T00:33:08.607Z,1012.54
2017-05-05T00:34:08.547Z,1012.58
2017-05-05T00:35:08.484Z,1012.56
2017-05-05T00:36:08.422Z,1012.57
2017-05-05T00:37:08.359Z,1012.55
2017-05-05T00:38:08.297Z,1012.56
2017-05-05T00:39:08.235Z,1012.53
2017-05-05T00:40:08.172Z,1012.52
2017-05-05T00:41:08.110Z,1012.52
2017-05-05T00:42:08.047Z,1012.55
2017-05-05T00:43:07.985Z,1012.55
2017-05-05T00:44:07.923Z,1012.5
2017-05-05T00:45:07.860Z,1012.53
2017-05-05T00:46:07.798Z,1012.55
2017-05-05T00:47:07.738Z,1012.52
2017-05-05T00:48:07.673Z,1012.51
2017-05-05T00:49:07.611Z,1012.5
2017-05-05T00:50:07.550Z,1012.48
2017-05-05T00:51:07.487Z,1012.47
2017-05-05T00:52:07.424Z,1012.43
2017-05-05T00:53:07.364Z,1012.43
2017-05-05T00:54:07.300Z,1012.44
2017-05-05T00:55:07.237Z,1012.46
2017-05-05T00:56:07.174Z,1012.48
2017-05-05T00:57:07.113Z,1012.43
2017-05-05T00:58:07.051Z,1012.41
2017-05-05T00:59:06.987Z,1012.43
2017-05-05T01:00:06.924Z,1012.38
2017-05-05T01:01:06.864Z,1012.36
2017-05-05T01:02:06.801Z,1012.36
2017-05-05T01:03:06.738Z,1012.37
2017-05-05T01:04:06.676Z,1012.37
2017-05-05T01:05:06.614Z,1012.35
2017-05-05T01:06:06.552Z,1012.37
2017-05-05T01:07:06.489Z,1012.35
2017-05-05T01:08:06.427Z,1012.35
2017-05-05T01:09:06.365Z,1012.36
2017-05-05T01:10:06.401Z,1012.36
2017-05-05T01:11:06.239Z,1012.37
2017-05-05T01:12:06.178Z,1012.35
2017-05-05T01:13:06.115Z,1012.32
2017-05-05T01:14:06.053Z,1012.38
2017-05-05T01:15:06.004Z,1012.38
2017-05-05T01:16:05.930Z,1012.36
2017-05-05T01:17:05.865Z,1012.35
2017-05-05T01:18:05.803Z,1012.35
2017-05-05T01:19:05.741Z,1012.36
2017-05-05T01:20:05.679Z,1012.36
2017-05-05T01:21:05.616Z,1012.36
2017-05-05T01:22:05.553Z,1012.36
2017-05-05T01:23:05.502Z,1012.38
2017-05-05T01:24:05.429Z,1012.37
2017-05-05T01:25:05.367Z,1012.39
2017-05-05T01:26:05.305Z,1012.37
2017-05-05T01:27:05.243Z,1012.42
2017-05-05T01:28:05.180Z,1012.4
2017-05-05T01:29:05.117Z,1012.45
2017-05-05T01:30:05.056Z,1012.46
2017-05-05T01:31:04.994Z,1012.47
2017-05-05T01:32:04.931Z,1012.48
2017-05-05T01:33:04.868Z,1012.44
2017-05-05T01:34:04.806Z,1012.48
2017-05-05T01:35:04.744Z,1012.47
2017-05-05T01:36:04.681Z,1012.47
2017-05-05T01:37:04.621Z,1012.48
2017-05-05T01:38:04.558Z,1012.44
2017-05-05T01:39:04.495Z,1012.46
2017-05-05T01:40:04.432Z,1012.4
2017-05-05T01:41:04.371Z,1012.44
2017-05-05T01:42:04.308Z,1012.43
2017-05-05T01:43:04.245Z,1012.43
2017-05-05T01:44:04.198Z,1012.45
2017-05-05T01:45:04.123Z,1012.49
2017-05-05T01:46:04.058Z,1012.48
2017-05-05T01:47:03.997Z,1012.48
2017-05-05T01:48:03.936Z,1012.46
2017-05-05T01:49:03.873Z,1012.46
2017-05-05T01:50:03.809Z,1012.45
2017-05-05T01:51:03.747Z,1012.45
2017-05-05T01:52:03.685Z,1012.5
2017-05-05T01:53:03.623Z,1012.44
2017-05-05T01:54:03.560Z,1012.49
2017-05-05T01:55:03.497Z,1012.45
2017-05-05T01:56:03.436Z,1012.43
2017-05-05T01:57:03.372Z,1012.46
2017-05-05T01:58:03.310Z,1012.47
2017-05-05T01:59:03.249Z,1012.49
2017-05-05T02:00:03.185Z,1012.49
2017-05-05T02:01:03.122Z,1012.44
2017-05-05T02:02:03.062Z,1012.45
2017-05-05T02:03:02.999Z,1012.42
2017-05-05T02:04:02.937Z,1012.42
2017-05-05T02:05:02.874Z,1012.44
2017-05-05T02:06:02.812Z,1012.45
2017-05-05T02:07:02.751Z,1012.48
2017-05-05T02:08:02.686Z,1012.47
2017-05-05T02:09:02.625Z,1012.48
2017-05-05T02:10:02.564Z,1012.46
2017-05-05T02:11:02.500Z,1012.47
2017-05-05T02:12:02.437Z,1012.49
2017-05-05T02:13:02.376Z,1012.49
2017-05-05T02:14:02.313Z,1012.48
2017-05-05T02:15:02.263Z,1012.5
2017-05-05T02:16:02.188Z,1012.49
2017-05-05T02:17:02.126Z,1012.5
2017-05-05T02:18:02.064Z,1012.5
2017-05-05T02:19:02.000Z,1012.52
2017-05-05T02:20:01.938Z,1012.55
2017-05-05T02:21:01.877Z,1012.53
2017-05-05T02:22:01.814Z,1012.51
2017-05-05T02:23:01.752Z,1012.55
2017-05-05T02:24:01.689Z,1012.53
2017-05-05T02:25:01.628Z,1012.57
2017-05-05T02:26:01.565Z,1012.57
2017-05-05T02:27:01.501Z,1012.56
2017-05-05T02:28:01.439Z,1012.52
2017-05-05T02:29:01.378Z,1012.55
2017-05-05T02:30:01.315Z,1012.58
2017-05-05T02:31:01.252Z,1012.53
2017-05-05T02:32:01.190Z,1012.58
2017-05-05T02:33:01.128Z,1012.58
2017-05-05T02:34:01.065Z,1012.58
2017-05-05T02:35:01.003Z,1012.57
2017-05-05T02:36:00.941Z,1012.6
2017-05-05T02:37:00.880Z,1012.55
2017-05-05T02:38:00.820Z,1012.58
2017-05-05T02:39:00.754Z,1012.53
2017-05-05T02:40:00.703Z,1012.52
2017-05-05T02:41:00.629Z,1012.48
2017-05-05T02:42:00.566Z,1012.47
2017-05-05T02:43:00.505Z,1012.54
2017-05-05T02:44:00.452Z,1012.55
2017-05-05T02:45:00.379Z,1012.58
2017-05-05T02:46:00.316Z,1012.57
2017-05-05T02:47:00.256Z,1012.58
2017-05-05T02:48:00.193Z,1012.57
2017-05-05T02:49:00.130Z,1012.57
2017-05-05T02:50:00.067Z,1012.54
2017-05-05T02:51:00.007Z,1012.49
2017-05-05T02:51:59.943Z,1012.48
2017-05-05T02:52:59.881Z,1012.47
2017-05-05T02:53:59.819Z,1012.43
2017-05-05T02:54:59.756Z,1012.44
2017-05-05T02:55:59.695Z,1012.43
2017-05-05T02:56:59.636Z,1012.42
2017-05-05T02:57:59.569Z,1012.46
2017-05-05T02:58:59.507Z,1012.45
2017-05-05T02:59:59.444Z,1012.49
2017-05-05T03:00:59.381Z,1012.5
2017-05-05T03:01:59.320Z,1012.51
2017-05-05T03:02:59.258Z,1012.5
2017-05-05T03:03:59.195Z,1012.54
2017-05-05T03:04:59.132Z,1012.54
2017-05-05T03:05:59.070Z,1012.53
2017-05-05T03:06:59.007Z,1012.53
2017-05-05T03:07:58.945Z,1012.53
2017-05-05T03:08:58.882Z,1012.52
2017-05-05T03:09:58.821Z,1012.57
2017-05-05T03:10:58.758Z,1012.58
2017-05-05T03:11:58.697Z,1012.6
2017-05-05T03:12:58.634Z,1012.57
2017-05-05T03:13:58.572Z,1012.59
2017-05-05T03:14:58.509Z,1012.6
2017-05-05T03:15:58.447Z,1012.59
2017-05-05T03:16:58.385Z,1012.6
2017-05-05T03:17:58.322Z,1012.56
2017-05-05T03:18:58.260Z,1012.6
2017-05-05T03:19:58.198Z,1012.62
2017-05-05T03:20:58.134Z,1012.61
2017-05-05T03:21:58.073Z,1012.64
2017-05-05T03:22:58.011Z,1012.62
2017-05-05T03:23:57.949Z,1012.65
2017-05-05T03:24:57.900Z,1012.6
2017-05-05T03:25:57.823Z,1012.57
2017-05-05T03:26:57.761Z,1012.6
2017-05-05T03:27:57.699Z,1012.58
2017-05-05T03:28:57.635Z,1012.63
2017-05-05T03:29:57.578Z,1012.62
2017-05-05T03:30:57.510Z,1012.68
2017-05-05T03:31:57.455Z,1012.68
2017-05-05T03:32:57.385Z,1012.69
2017-05-05T03:33:57.325Z,1012.69
2017-05-05T03:34:57.262Z,1012.68
2017-05-05T03:35:57.200Z,1012.66
2017-05-05T03:36:57.137Z,1012.63
2017-05-05T03:37:57.075Z,1012.61
2017-05-05T03:38:57.013Z,1012.6
2017-05-05T03:39:56.950Z,1012.61
2017-05-05T03:40:56.887Z,1012.59
2017-05-05T03:41:56.825Z,1012.66
2017-05-05T03:42:56.762Z,1012.7
2017-05-05T03:43:56.699Z,1012.74
2017-05-05T03:44:56.638Z,1012.77
2017-05-05T03:45:56.576Z,1012.79
2017-05-05T03:46:56.513Z,1012.8
2017-05-05T03:47:56.450Z,1012.8
2017-05-05T03:48:56.388Z,1012.8
2017-05-05T03:49:56.327Z,1012.73
2017-05-05T03:50:56.263Z,1012.75
2017-05-05T03:51:56.202Z,1012.78
2017-05-05T03:52:56.139Z,1012.75
2017-05-05T03:53:56.076Z,1012.73
2017-05-05T03:54:56.014Z,1012.75
2017-05-05T03:55:55.952Z,1012.79
2017-05-05T03:56:55.890Z,1012.77
2017-05-05T03:57:55.826Z,1012.81
2017-05-05T03:58:55.763Z,1012.81
2017-05-05T03:59:55.702Z,1012.81
2017-05-05T04:00:55.639Z,1012.78
2017-05-05T04:01:55.576Z,1012.78
2017-05-05T04:02:55.522Z,1012.77
2017-05-05T04:03:55.452Z,1012.74
2017-05-05T04:04:55.390Z,1012.73
2017-05-05T04:05:55.327Z,1012.7
2017-05-05T04:06:55.265Z,1012.69
2017-05-05T04:07:55.204Z,1012.77
2017-05-05T04:08:55.139Z,1012.82
2017-05-05T04:09:55.077Z,1012.79
2017-05-05T04:10:55.023Z,1012.83
2017-05-05T04:11:54.953Z,1012.74
2017-05-05T04:12:54.890Z,1012.76
2017-05-05T04:13:54.829Z,1012.79
2017-05-05T04:14:54.766Z,1012.76
2017-05-05T04:15:54.703Z,1012.81
2017-05-05T04:16:54.643Z,1012.8
2017-05-05T04:17:54.578Z,1012.85
2017-05-05T04:18:54.516Z,1012.91
2017-05-05T04:19:54.454Z,1012.91
2017-05-05T04:20:54.391Z,1012.92
2017-05-05T04:21:54.329Z,1013.1
2017-05-05T04:22:54.266Z,1013.03
2017-05-05T04:23:54.203Z,1012.84
2017-05-05T04:24:54.143Z,1012.84
2017-05-05T04:25:54.079Z,1012.82
2017-05-05T04:26:54.017Z,1012.85
2017-05-05T04:27:53.955Z,1012.87
2017-05-05T04:28:53.893Z,1012.89
2017-05-05T04:29:53.830Z,1012.9
2017-05-05T04:30:53.767Z,1012.92
2017-05-05T04:31:53.704Z,1012.93
2017-05-05T04:32:53.652Z,1012.96
2017-05-05T04:33:53.580Z,1012.96
2017-05-05T04:34:53.517Z,1012.95
2017-05-05T04:35:53.455Z,1012.98
2017-05-05T04:36:53.393Z,1012.95
2017-05-05T04:37:53.330Z,1012.96
2017-05-05T04:38:53.270Z,1012.97
2017-05-05T04:39:53.205Z,1012.97
2017-05-05T04:40:53.143Z,1013.01
2017-05-05T04:41:53.080Z,1013
2017-05-05T04:42:53.018Z,1013
2017-05-05T04:43:52.956Z,1013.02
2017-05-05T04:44:52.893Z,1013.01
2017-05-05T04:45:52.831Z,1013.03
2017-05-05T04:46:52.769Z,1013.03
2017-05-05T04:47:52.705Z,1013.02
2017-05-05T04:48:52.643Z,1012.96
2017-05-05T04:49:52.581Z,1012.97
2017-05-05T04:50:52.518Z,1012.99
2017-05-05T04:51:52.457Z,1012.96
2017-05-05T04:52:52.396Z,1012.96
2017-05-05T04:53:52.330Z,1012.95
2017-05-05T04:54:52.268Z,1013.01
2017-05-05T04:55:52.208Z,1013.02
2017-05-05T04:56:52.143Z,1013.06
2017-05-05T04:57:52.081Z,1013.06
2017-05-05T04:58:52.018Z,1013.13
2017-05-05T04:59:51.959Z,1013.12
2017-05-05T05:00:51.892Z,1013.09
2017-05-05T05:01:51.830Z,1013.08
2017-05-05T05:02:51.768Z,1013.09
2017-05-05T05:03:51.704Z,1013.03
2017-05-05T05:04:51.642Z,1013.02
2017-05-05T05:05:51.580Z,1013.01
2017-05-05T05:06:51.524Z,1013.02
2017-05-05T05:07:51.454Z,1013.03
2017-05-05T05:08:51.392Z,1013.06
2017-05-05T05:09:51.329Z,1013.07
2017-05-05T05:10:51.416Z,1013.1
2017-05-05T05:11:51.203Z,1013.09
2017-05-05T05:12:51.142Z,1013.08
2017-05-05T05:13:51.079Z,1013.07
2017-05-05T05:14:51.015Z,1013.05
2017-05-05T05:15:50.953Z,1013.08
2017-05-05T05:16:50.891Z,1013.08
2017-05-05T05:17:50.827Z,1013.08
2017-05-05T05:18:50.785Z,1013.07
2017-05-05T05:19:50.702Z,1013.07
2017-05-05T05:20:50.641Z,1013.09
2017-05-05T05:21:50.576Z,1013.09
2017-05-05T05:22:50.514Z,1013.15
2017-05-05T05:23:50.452Z,1013.17
2017-05-05T05:24:50.389Z,1013.19
2017-05-05T05:25:50.325Z,1013.21
2017-05-05T05:26:50.264Z,1013.24
2017-05-05T05:27:50.203Z,1013.24
2017-05-05T05:28:50.137Z,1013.26
2017-05-05T05:29:50.076Z,1013.24
2017-05-05T05:30:50.012Z,1013.22
2017-05-05T05:31:49.950Z,1013.24
2017-05-05T05:32:49.886Z,1013.27
2017-05-05T05:33:49.825Z,1013.22
2017-05-05T05:34:49.761Z,1013.24
2017-05-05T05:35:49.699Z,1013.22
2017-05-05T05:36:49.636Z,1013.25
2017-05-05T05:37:49.574Z,1013.29
2017-05-05T05:38:49.510Z,1013.26
2017-05-05T05:39:49.447Z,1013.27
2017-05-05T05:40:49.385Z,1013.28
2017-05-05T05:41:49.323Z,1013.31
2017-05-05T05:42:49.260Z,1013.31
2017-05-05T05:43:49.196Z,1013.31
2017-05-05T05:44:49.134Z,1013.33
2017-05-05T05:45:49.071Z,1013.29
2017-05-05T05:46:49.009Z,1013.26
2017-05-05T05:47:48.945Z,1013.29
2017-05-05T05:48:48.882Z,1013.28
2017-05-05T05:49:48.820Z,1013.31
2017-05-05T05:50:48.757Z,1013.29
2017-05-05T05:51:48.695Z,1013.3
2017-05-05T05:52:48.631Z,1013.3
2017-05-05T05:53:48.569Z,1013.3
2017-05-05T05:54:48.506Z,1013.31
2017-05-05T05:55:48.443Z,1013.3
2017-05-05T05:56:48.381Z,1013.34
2017-05-05T05:57:48.318Z,1013.32
2017-05-05T05:58:48.255Z,1013.35
2017-05-05T05:59:48.193Z,1013.37
2017-05-05T06:00:48.129Z,1013.36
2017-05-05T06:01:48.066Z,1013.34
2017-05-05T06:02:48.004Z,1013.31
2017-05-05T06:03:47.941Z,1013.33
2017-05-05T06:04:47.878Z,1013.35
2017-05-05T06:05:47.814Z,1013.33
2017-05-05T06:06:47.752Z,1013.36
2017-05-05T06:07:47.690Z,1013.36
2017-05-05T06:08:47.627Z,1013.36
2017-05-05T06:09:47.563Z,1013.36
2017-05-05T06:10:47.502Z,1013.35
2017-05-05T06:11:47.438Z,1013.32
2017-05-05T06:12:47.374Z,1013.34
2017-05-05T06:13:47.312Z,1013.34
2017-05-05T06:14:47.250Z,1013.34
2017-05-05T06:15:47.187Z,1013.34
2017-05-05T06:16:47.123Z,1013.39
2017-05-05T06:17:47.061Z,1013.36
2017-05-05T06:18:46.999Z,1013.35
2017-05-05T06:19:46.936Z,1013.37
2017-05-05T06:20:46.873Z,1013.35
2017-05-05T06:21:46.811Z,1013.34
2017-05-05T06:22:46.748Z,1013.32
2017-05-05T06:23:46.685Z,1013.34
2017-05-05T06:24:46.622Z,1013.36
2017-05-05T06:25:46.559Z,1013.34
2017-05-05T06:26:46.497Z,1013.38
2017-05-05T06:27:46.434Z,1013.33
2017-05-05T06:28:46.371Z,1013.37
2017-05-05T06:29:46.308Z,1013.32
2017-05-05T06:30:46.245Z,1013.31
2017-05-05T06:31:46.181Z,1013.28
2017-05-05T06:32:46.119Z,1013.29
2017-05-05T06:33:46.056Z,1013.31
2017-05-05T06:34:45.993Z,1013.26
2017-05-05T06:35:45.930Z,1013.25
2017-05-05T06:36:45.868Z,1013.29
2017-05-05T06:37:45.805Z,1013.28
2017-05-05T06:38:45.740Z,1013.23
2017-05-05T06:39:45.679Z,1013.27
2017-05-05T06:40:45.619Z,1013.36
2017-05-05T06:41:45.555Z,1013.37
2017-05-05T06:42:45.490Z,1013.36
2017-05-05T06:43:45.428Z,1013.37
2017-05-05T06:44:45.365Z,1013.35
2017-05-05T06:45:45.402Z,1013.27
2017-05-05T06:46:45.239Z,1013.25
2017-05-05T06:47:45.175Z,1013.29
2017-05-05T06:48:45.113Z,1013.32
2017-05-05T06:49:45.049Z,1013.31
2017-05-05T06:50:45.136Z,1013.38
2017-05-05T06:51:44.924Z,1013.34
2017-05-05T06:52:44.860Z,1013.4
2017-05-05T06:53:44.799Z,1013.43
2017-05-05T06:54:44.735Z,1013.42
2017-05-05T06:55:44.672Z,1013.43
2017-05-05T06:56:44.662Z,1013.42
2017-05-05T06:57:44.546Z,1013.47
2017-05-05T06:58:44.483Z,1013.46
2017-05-05T06:59:44.421Z,1013.48
2017-05-05T07:00:44.360Z,1013.47
2017-05-05T07:01:44.295Z,1013.45
2017-05-05T07:02:44.232Z,1013.44
2017-05-05T07:03:44.169Z,1013.44
2017-05-05T07:04:44.105Z,1013.47
2017-05-05T07:05:44.044Z,1013.46
2017-05-05T07:06:43.980Z,1013.46
2017-05-05T07:07:43.918Z,1013.47
2017-05-05T07:08:43.855Z,1013.47
2017-05-05T07:09:43.792Z,1013.5
2017-05-05T07:10:43.729Z,1013.48
2017-05-05T07:11:43.666Z,1013.47
2017-05-05T07:12:43.603Z,1013.47
2017-05-05T07:13:43.541Z,1013.49
2017-05-05T07:14:43.477Z,1013.51
2017-05-05T07:15:43.414Z,1013.5
2017-05-05T07:16:43.352Z,1013.5
2017-05-05T07:17:43.290Z,1013.55
2017-05-05T07:18:43.226Z,1013.55
2017-05-05T07:19:43.163Z,1013.56
2017-05-05T07:20:43.102Z,1013.53
2017-05-05T07:21:43.038Z,1013.51
2017-05-05T07:22:42.975Z,1013.55
2017-05-05T07:23:42.914Z,1013.52
2017-05-05T07:24:42.850Z,1013.51
2017-05-05T07:25:42.786Z,1013.53
2017-05-05T07:26:42.724Z,1013.55
2017-05-05T07:27:42.662Z,1013.57
2017-05-05T07:28:42.599Z,1013.56
2017-05-05T07:29:42.536Z,1013.64
2017-05-05T07:30:42.473Z,1013.66
2017-05-05T07:31:42.410Z,1013.67
2017-05-05T07:32:42.348Z,1013.72
2017-05-05T07:33:42.285Z,1013.72
2017-05-05T07:34:42.222Z,1013.69
2017-05-05T07:35:42.159Z,1013.69
2017-05-05T07:36:42.096Z,1013.67
2017-05-05T07:37:42.034Z,1013.67
2017-05-05T07:38:41.971Z,1013.63
2017-05-05T07:39:41.908Z,1013.66
2017-05-05T07:40:41.845Z,1013.71
2017-05-05T07:41:41.782Z,1013.69
2017-05-05T07:42:41.720Z,1013.68
2017-05-05T07:43:41.657Z,1013.7
2017-05-05T07:44:41.594Z,1013.65
2017-05-05T07:45:41.531Z,1013.66
2017-05-05T07:46:41.468Z,1013.64
2017-05-05T07:47:41.406Z,1013.67
2017-05-05T07:48:41.342Z,1013.78
2017-05-05T07:49:41.280Z,1013.77
2017-05-05T07:50:41.218Z,1013.81
2017-05-05T07:51:41.154Z,1013.84
2017-05-05T07:52:41.092Z,1013.83
2017-05-05T07:53:41.032Z,1013.83
2017-05-05T07:54:40.967Z,1013.75
2017-05-05T07:55:40.905Z,1013.76
2017-05-05T07:56:40.843Z,1013.75
2017-05-05T07:57:40.780Z,1013.78
2017-05-05T07:58:40.716Z,1013.79
2017-05-05T07:59:40.653Z,1013.79
2017-05-05T08:00:40.590Z,1013.8
2017-05-05T08:01:40.528Z,1013.78
2017-05-05T08:02:40.465Z,1013.83
2017-05-05T08:03:40.402Z,1013.8
2017-05-05T08:04:40.340Z,1013.79
2017-05-05T08:05:40.278Z,1013.79
2017-05-05T08:06:40.214Z,1013.83
2017-05-05T08:07:40.153Z,1013.85
2017-05-05T08:08:40.090Z,1013.86
2017-05-05T08:09:40.025Z,1013.86
2017-05-05T08:10:39.963Z,1013.8
2017-05-05T08:11:39.901Z,1013.85
2017-05-05T08:12:39.838Z,1013.86
2017-05-05T08:13:39.774Z,1013.86
2017-05-05T08:14:39.713Z,1013.83
2017-05-05T08:15:39.651Z,1013.84
2017-05-05T08:16:39.587Z,1013.84
2017-05-05T08:17:39.523Z,1013.84
2017-05-05T08:18:39.461Z,1013.81
2017-05-05T08:19:39.399Z,1013.8
2017-05-05T08:20:39.335Z,1013.8
2017-05-05T08:21:39.278Z,1013.82
2017-05-05T08:22:39.210Z,1013.86
2017-05-05T08:23:39.148Z,1013.85
2017-05-05T08:24:39.089Z,1013.86
2017-05-05T08:25:39.022Z,1013.88
2017-05-05T08:26:38.961Z,1013.87
2017-05-05T08:27:38.896Z,1013.91
2017-05-05T08:28:38.838Z,1013.87
2017-05-05T08:29:38.771Z,1013.86
2017-05-05T08:30:38.709Z,1013.89
2017-05-05T08:31:38.645Z,1013.92
2017-05-05T08:32:38.602Z,1013.89
2017-05-05T08:33:38.520Z,1013.92
2017-05-05T08:34:38.458Z,1013.94
2017-05-05T08:35:38.394Z,1013.92
2017-05-05T08:36:38.333Z,1013.93
2017-05-05T08:37:38.269Z,1013.96
2017-05-05T08:38:38.206Z,1013.97
2017-05-05T08:39:38.143Z,1013.97
2017-05-05T08:40:38.080Z,1013.96
2017-05-05T08:41:38.020Z,1013.99
2017-05-05T08:42:37.955Z,1014.07
2017-05-05T08:43:38.143Z,1014.04
2017-05-05T08:44:37.831Z,1013.98
2017-05-05T08:45:37.769Z,1013.97
2017-05-05T08:46:37.704Z,1013.99
2017-05-05T08:47:37.677Z,1013.97
2017-05-05T08:48:37.579Z,1013.96
2017-05-05T08:49:37.515Z,1013.96
2017-05-05T08:50:37.454Z,1013.98
2017-05-05T08:51:37.390Z,1013.98
2017-05-05T08:52:37.328Z,1013.93
2017-05-05T08:53:37.265Z,1013.95
2017-05-05T08:54:37.202Z,1013.93
2017-05-05T08:55:37.240Z,1014
2017-05-05T08:56:37.078Z,1014
2017-05-05T08:57:37.014Z,1013.92
2017-05-05T08:58:36.951Z,1013.95
2017-05-05T08:59:36.888Z,1013.98
2017-05-05T09:00:37.075Z,1013.98
2017-05-05T09:01:36.763Z,1013.97
2017-05-05T09:02:36.700Z,1013.99
2017-05-05T09:03:36.638Z,1013.97
2017-05-05T09:04:36.575Z,1014
2017-05-05T09:05:36.513Z,1014.03
2017-05-05T09:06:36.450Z,1014.01
2017-05-05T09:07:36.387Z,1014.03
2017-05-05T09:08:36.324Z,1014.01
2017-05-05T09:09:36.261Z,1014.05
2017-05-05T09:10:36.200Z,1014.03
2017-05-05T09:11:36.135Z,1014.06
2017-05-05T09:12:36.072Z,1014.01
2017-05-05T09:13:36.010Z,1014.04
2017-05-05T09:14:35.948Z,1014.06
2017-05-05T09:15:35.885Z,1014.08
2017-05-05T09:16:35.823Z,1014.02
2017-05-05T09:17:35.760Z,1014.06
2017-05-05T09:18:35.703Z,1014.05
2017-05-05T09:19:35.634Z,1014.06
2017-05-05T09:20:35.573Z,1014.08
2017-05-05T09:21:35.509Z,1014.07
2017-05-05T09:22:35.447Z,1014.09
2017-05-05T09:23:35.386Z,1014.07
2017-05-05T09:24:35.322Z,1014.11
2017-05-05T09:25:35.259Z,1014.17
2017-05-05T09:26:35.196Z,1014.15
2017-05-05T09:27:35.140Z,1014.19
2017-05-05T09:28:35.071Z,1014.25
2017-05-05T09:29:35.009Z,1014.16
2017-05-05T09:30:34.946Z,1014.19
2017-05-05T09:31:34.884Z,1014.18
2017-05-05T09:32:34.821Z,1014.24
2017-05-05T09:33:34.758Z,1014.22
2017-05-05T09:34:34.695Z,1014.2
2017-05-05T09:35:34.635Z,1014.19
2017-05-05T09:36:34.573Z,1014.13
2017-05-05T09:37:34.507Z,1014.19
2017-05-05T09:38:34.445Z,1014.19
2017-05-05T09:39:34.384Z,1014.17
2017-05-05T09:40:34.330Z,1014.17
2017-05-05T09:41:34.270Z,1014.21
2017-05-05T09:42:34.195Z,1014.13
2017-05-05T09:43:34.133Z,1014.14
2017-05-05T09:44:34.069Z,1014.16
2017-05-05T09:45:34.007Z,1014.17
2017-05-05T09:46:33.944Z,1014.13
2017-05-05T09:47:33.882Z,1014.15
2017-05-05T09:48:33.820Z,1014.17
2017-05-05T09:49:33.758Z,1014.18
2017-05-05T09:50:33.694Z,1014.22
2017-05-05T09:51:33.631Z,1014.17
2017-05-05T09:52:33.568Z,1014.19
2017-05-05T09:53:33.506Z,1014.24
2017-05-05T09:54:33.443Z,1014.26
2017-05-05T09:55:33.382Z,1014.23
2017-05-05T09:56:33.318Z,1014.29
2017-05-05T09:57:33.255Z,1014.32
2017-05-05T09:58:33.199Z,1014.31
2017-05-05T09:59:33.130Z,1014.36
2017-05-05T10:00:33.069Z,1014.36
2017-05-05T10:01:33.005Z,1014.37
2017-05-05T10:02:32.942Z,1014.39
2017-05-05T10:03:32.880Z,1014.4
2017-05-05T10:04:32.817Z,1014.39
2017-05-05T10:05:32.756Z,1014.43
2017-05-05T10:06:32.691Z,1014.44
2017-05-05T10:07:32.629Z,1014.45
2017-05-05T10:08:32.568Z,1014.47
2017-05-05T10:09:32.504Z,1014.5
2017-05-05T10:10:32.440Z,1014.48
2017-05-05T10:11:32.379Z,1014.48
2017-05-05T10:12:32.316Z,1014.47
2017-05-05T10:13:32.268Z,1014.49
2017-05-05T10:14:32.190Z,1014.52
2017-05-05T10:15:32.157Z,1014.47
2017-05-05T10:16:32.066Z,1014.51
2017-05-05T10:17:32.002Z,1014.49
2017-05-05T10:18:31.941Z,1014.51
2017-05-05T10:19:31.878Z,1014.46
2017-05-05T10:20:31.815Z,1014.46
2017-05-05T10:21:31.752Z,1014.43
2017-05-05T10:22:31.690Z,1014.44
2017-05-05T10:23:31.627Z,1014.44
2017-05-05T10:24:31.566Z,1014.45
2017-05-05T10:25:31.502Z,1014.39
2017-05-05T10:26:31.438Z,1014.41
2017-05-05T10:27:31.377Z,1014.43
2017-05-05T10:28:31.314Z,1014.43
2017-05-05T10:29:31.273Z,1014.45
2017-05-05T10:30:31.188Z,1014.43
2017-05-05T10:31:31.127Z,1014.42
2017-05-05T10:32:31.063Z,1014.47
2017-05-05T10:33:31.001Z,1014.44
2017-05-05T10:34:30.939Z,1014.47
2017-05-05T10:35:30.898Z,1014.47
2017-05-05T10:36:30.813Z,1014.48
2017-05-05T10:37:30.750Z,1014.49
2017-05-05T10:38:30.688Z,1014.49
2017-05-05T10:39:30.624Z,1014.52
2017-05-05T10:40:30.563Z,1014.52
2017-05-05T10:41:30.501Z,1014.52
2017-05-05T10:42:30.437Z,1014.51
2017-05-05T10:43:30.374Z,1014.56
2017-05-05T10:44:30.311Z,1014.56
2017-05-05T10:45:30.254Z,1014.58
2017-05-05T10:46:30.209Z,1014.59
2017-05-05T10:47:30.142Z,1014.6
2017-05-05T10:48:30.062Z,1014.6
2017-05-05T10:49:29.999Z,1014.63
2017-05-05T10:50:29.949Z,1014.66
2017-05-05T10:51:29.874Z,1014.66
2017-05-05T10:52:29.811Z,1014.74
2017-05-05T10:53:29.750Z,1014.66
2017-05-05T10:54:29.689Z,1014.66
2017-05-05T10:55:29.623Z,1014.68
2017-05-05T10:56:29.561Z,1014.66
2017-05-05T10:57:29.499Z,1014.69
2017-05-05T10:58:29.437Z,1014.67
2017-05-05T10:59:29.373Z,1014.66
2017-05-05T11:00:29.311Z,1014.66
2017-05-05T11:01:29.247Z,1014.64
2017-05-05T11:02:29.184Z,1014.67
2017-05-05T11:03:29.123Z,1014.63
2017-05-05T11:04:29.060Z,1014.68
2017-05-05T11:05:28.997Z,1014.66
2017-05-05T11:06:28.936Z,1014.64
2017-05-05T11:07:28.873Z,1014.62
2017-05-05T11:08:28.810Z,1014.62
2017-05-05T11:09:28.747Z,1014.58
2017-05-05T11:10:28.685Z,1014.59
2017-05-05T11:11:28.625Z,1014.65
2017-05-05T11:12:28.559Z,1014.63
2017-05-05T11:13:28.496Z,1014.64
2017-05-05T11:14:28.434Z,1014.63
2017-05-05T11:15:28.371Z,1014.66
2017-05-05T11:16:28.308Z,1014.63
2017-05-05T11:17:28.246Z,1014.65
2017-05-05T11:18:28.184Z,1014.61
2017-05-05T11:19:28.120Z,1014.6
2017-05-05T11:20:28.058Z,1014.61
2017-05-05T11:21:27.996Z,1014.64
2017-05-05T11:22:27.933Z,1014.74
2017-05-05T11:23:27.870Z,1014.69
2017-05-05T11:24:27.808Z,1014.7
2017-05-05T11:25:27.745Z,1014.73
2017-05-05T11:26:27.684Z,1014.7
2017-05-05T11:27:27.619Z,1014.67
2017-05-05T11:28:27.569Z,1014.72
2017-05-05T11:29:27.495Z,1014.75
2017-05-05T11:30:27.436Z,1014.75
2017-05-05T11:31:27.369Z,1014.78
2017-05-05T11:32:27.307Z,1014.79
2017-05-05T11:33:27.245Z,1014.76
2017-05-05T11:34:27.182Z,1014.76
2017-05-05T11:35:27.121Z,1014.77
2017-05-05T11:36:27.056Z,1014.71
2017-05-05T11:37:26.993Z,1014.74
2017-05-05T11:38:26.930Z,1014.79
2017-05-05T11:39:26.868Z,1014.81
2017-05-05T11:40:26.806Z,1014.78
2017-05-05T11:41:26.743Z,1014.81
2017-05-05T11:42:26.680Z,1014.83
2017-05-05T11:43:26.618Z,1014.88
2017-05-05T11:44:26.559Z,1014.86
2017-05-05T11:45:26.492Z,1014.84
2017-05-05T11:46:26.430Z,1014.86
2017-05-05T11:47:26.367Z,1014.87
2017-05-05T11:48:26.304Z,1014.88
2017-05-05T11:49:26.241Z,1014.84
2017-05-05T11:50:26.181Z,1014.9
2017-05-05T11:51:26.117Z,1014.91
2017-05-05T11:52:26.054Z,1014.91
2017-05-05T11:53:25.990Z,1014.95
2017-05-05T11:54:25.929Z,1014.94
2017-05-05T11:55:25.866Z,1014.97
2017-05-05T11:56:25.803Z,1014.96
2017-05-05T11:57:25.741Z,1015
2017-05-05T11:58:25.678Z,1014.97
2017-05-05T11:59:25.615Z,1014.97
2017-05-05T12:00:25.553Z,1014.95
2017-05-05T12:01:25.493Z,1014.93
2017-05-05T12:02:25.428Z,1014.97
2017-05-05T12:03:25.369Z,1014.94
2017-05-05T12:04:25.304Z,1014.92
2017-05-05T12:05:25.591Z,1014.9
2017-05-05T12:06:25.178Z,1014.91
2017-05-05T12:07:25.114Z,1014.9
2017-05-05T12:08:25.051Z,1014.93